Time;durP1;ratioP1;P1;durP2;ratioP2;P2;SDS_P1;SDS_P2;PMS_P1;PMS_P2;Temp;Humidity;BMP_temperature;BMP_pressure;BME280_temperature;BME280_humidity;BME280_pressure;Samples;Min_cycle;Max_cycle;Signal;HPM_P1;HPM_P2
2022/01/08 00:01:20;;;;;;;10.57;1.92;;;3.00;97.10;;;;;;5021365;28;37326;-59
2022/01/08 00:03:48;;;;;;;3.97;1.85;;;3.00;97.10;;;;;;5021330;28;35302;-59
2022/01/08 00:06:16;;;;;;;3.05;0.90;;;3.00;97.10;;;;;;5022385;28;37390;-59
2022/01/08 00:08:43;;;;;;;4.10;1.00;;;3.00;97.10;;;;;;5021463;28;38843;-59
2022/01/08 00:11:14;;;;;;;8.15;1.20;;;3.00;97.10;;;;;;5021467;28;37292;-60
2022/01/08 00:13:43;;;;;;;8.07;1.75;;;3.00;97.10;;;;;;5021279;28;36567;-59
2022/01/08 00:16:10;;;;;;;5.25;1.65;;;2.90;97.20;;;;;;5020850;28;37683;-59
2022/01/08 00:18:37;;;;;;;6.38;1.30;;;2.90;97.20;;;;;;5021506;28;36417;-59
2022/01/08 00:21:05;;;;;;;7.03;1.20;;;2.90;97.30;;;;;;5022019;28;37458;-59
2022/01/08 00:23:32;;;;;;;10.57;1.15;;;2.90;97.40;;;;;;5021493;28;36366;-59
2022/01/08 00:25:59;;;;;;;3.92;1.05;;;2.90;97.40;;;;;;5021211;28;37634;-59
2022/01/08 00:28:27;;;;;;;6.20;1.55;;;2.90;97.50;;;;;;5021918;28;37890;-59
2022/01/08 00:30:55;;;;;;;5.38;1.30;;;2.80;97.40;;;;;;5021251;28;36257;-59
2022/01/08 00:33:23;;;;;;;4.63;1.05;;;2.80;97.60;;;;;;5021103;28;36397;-60
2022/01/08 00:35:50;;;;;;;3.38;0.90;;;2.70;97.60;;;;;;5020936;28;37525;-59
2022/01/08 00:38:17;;;;;;;4.45;1.25;;;2.70;97.80;;;;;;5020689;28;38838;-59
2022/01/08 00:40:45;;;;;;;4.18;1.08;;;2.70;97.90;;;;;;5021219;28;36218;-59
2022/01/08 00:43:12;;;;;;;9.07;2.63;;;2.20;97.70;;;;;;5020589;28;36468;-59
2022/01/08 00:45:39;;;;;;;5.63;1.13;;;2.60;97.80;;;;;;5020890;28;38241;-59
2022/01/08 00:48:08;;;;;;;6.32;1.40;;;2.60;97.90;;;;;;5020922;28;37728;-59
2022/01/08 00:50:35;;;;;;;6.47;1.60;;;2.60;97.90;;;;;;5021272;28;37371;-59
2022/01/08 00:53:03;;;;;;;3.47;1.15;;;2.60;97.80;;;;;;5021123;28;36346;-59
2022/01/08 00:55:30;;;;;;;6.93;1.15;;;2.60;97.90;;;;;;5021265;28;37427;-60
2022/01/08 00:57:58;;;;;;;5.85;1.17;;;2.50;97.90;;;;;;5021044;28;38447;-59
2022/01/08 01:00:25;;;;;;;5.38;1.60;;;2.60;98.10;;;;;;5021016;28;38221;-59
2022/01/08 01:02:53;;;;;;;7.22;1.88;;;2.60;98.10;;;;;;5021724;28;35752;-59
2022/01/08 01:05:22;;;;;;;8.45;2.42;;;2.60;98.20;;;;;;5020539;28;36479;-59
2022/01/08 01:07:49;;;;;;;7.20;1.65;;;2.70;98.30;;;;;;5020780;28;37894;-59
2022/01/08 01:10:18;;;;;;;6.38;1.58;;;2.70;98.20;;;;;;5020381;28;38264;-59
2022/01/08 01:12:45;;;;;;;3.75;1.20;;;2.70;98.10;;;;;;5019511;28;37347;-59
2022/01/08 01:15:14;;;;;;;6.57;1.98;;;2.80;98.10;;;;;;5020876;28;37947;-59
2022/01/08 01:17:43;;;;;;;8.23;1.55;;;2.80;98.10;;;;;;5019986;28;38335;-59
2022/01/08 01:20:14;;;;;;;8.52;2.03;;;2.80;98.20;;;;;;5020355;28;37373;-59
2022/01/08 01:22:51;;;;;;;7.82;2.03;;;2.80;98.40;;;;;;5020118;28;37992;-59
2022/01/08 01:25:23;;;;;;;8.35;2.15;;;2.80;98.50;;;;;;5020848;28;38283;-59
2022/01/08 01:27:58;;;;;;;7.18;1.90;;;2.80;98.50;;;;;;5019816;28;37692;-59
2022/01/08 01:30:50;;;;;;;8.60;2.10;;;2.80;98.30;;;;;;5019823;28;38438;-60
2022/01/08 01:41:54;;;;;;;8.93;1.73;;;2.70;98.40;;;;;;4941647;28;38195;-59
2022/01/08 01:47:09;;;;;;;8.52;2.13;;;2.70;98.50;;;;;;4989526;28;39411;-59
2022/01/08 01:49:38;;;;;;;6.10;2.17;;;2.70;98.60;;;;;;5020610;28;38502;-59
2022/01/08 01:52:08;;;;;;;6.88;2.03;;;2.70;98.70;;;;;;5020381;28;38279;-59
2022/01/08 01:54:37;;;;;;;9.52;2.00;;;2.80;98.60;;;;;;5018870;28;35431;-59
2022/01/08 01:57:07;;;;;;;7.13;1.92;;;2.80;98.50;;;;;;5020588;28;38513;-59
2022/01/08 01:59:36;;;;;;;5.72;2.28;;;2.80;98.50;;;;;;5020540;28;38065;-59
2022/01/08 02:02:04;;;;;;;9.38;1.90;;;2.80;98.40;;;;;;5021200;28;38084;-60
2022/01/08 02:04:32;;;;;;;4.95;1.63;;;2.80;98.40;;;;;;5020583;28;37403;-60
2022/01/08 02:06:59;;;;;;;8.20;1.90;;;2.80;98.30;;;;;;5020453;28;38465;-60
2022/01/08 02:09:27;;;;;;;4.38;1.48;;;2.90;98.40;;;;;;5019794;28;38301;-60
2022/01/08 02:12:03;;;;;;;5.75;1.50;;;2.90;98.30;;;;;;5020435;28;39229;-59
2022/01/08 02:14:33;;;;;;;6.30;1.52;;;2.90;98.50;;;;;;5020567;28;36660;-59
2022/01/08 02:17:00;;;;;;;5.40;1.52;;;2.90;98.50;;;;;;5020150;28;37555;-59
2022/01/08 02:19:28;;;;;;;5.53;1.83;;;2.90;98.50;;;;;;5020905;28;37804;-59
2022/01/08 02:21:58;;;;;;;11.95;2.65;;;2.80;98.40;;;;;;5020695;28;37348;-60
2022/01/08 02:24:26;;;;;;;5.90;1.23;;;2.80;98.50;;;;;;5020033;28;35725;-59
2022/01/08 02:26:54;;;;;;;6.68;1.30;;;2.80;98.50;;;;;;5020324;28;38864;-59
2022/01/08 02:29:23;;;;;;;5.38;2.00;;;2.80;98.70;;;;;;5020373;28;38402;-60
2022/01/08 02:31:56;;;;;;;8.32;1.35;;;2.80;98.40;;;;;;5020474;28;37586;-59
2022/01/08 02:34:25;;;;;;;5.78;1.13;;;2.80;98.40;;;;;;5020083;28;36574;-59
2022/01/08 02:36:52;;;;;;;3.55;1.10;;;2.80;98.30;;;;;;5020028;28;37992;-59
2022/01/08 02:39:21;;;;;;;6.13;0.95;;;2.80;98.20;;;;;;5019715;28;38583;-59
2022/01/08 02:41:53;;;;;;;4.95;1.10;;;2.90;98.10;;;;;;5019931;28;38692;-60
2022/01/08 02:44:20;;;;;;;4.70;1.05;;;2.90;98.10;;;;;;5019945;28;35398;-60
2022/01/08 02:46:48;;;;;;;5.55;0.98;;;2.90;98.00;;;;;;5019485;28;38336;-60
2022/01/08 02:49:15;;;;;;;3.70;0.90;;;3.00;98.00;;;;;;5019766;28;37791;-60
2022/01/08 02:51:43;;;;;;;3.38;1.00;;;3.00;97.90;;;;;;5019810;28;36259;-60
2022/01/08 02:54:12;;;;;;;4.97;1.45;;;3.00;97.80;;;;;;5019747;28;36652;-60
2022/01/08 02:56:41;;;;;;;5.05;1.17;;;3.00;97.80;;;;;;5019975;28;38316;-60
2022/01/08 02:59:09;;;;;;;4.97;0.77;;;3.00;97.70;;;;;;5019437;28;38724;-60
2022/01/08 03:01:37;;;;;;;1.83;0.60;;;2.90;97.70;;;;;;5019796;28;36228;-60
2022/01/08 03:04:05;;;;;;;3.95;0.85;;;3.40;97.80;;;;;;5019340;28;37419;-60
2022/01/08 03:06:33;;;;;;;3.38;0.50;;;2.80;97.70;;;;;;5022039;28;38485;-60
2022/01/08 03:09:00;;;;;;;4.00;0.88;;;2.80;97.60;;;;;;5022644;28;37713;-60
2022/01/08 03:11:28;;;;;;;6.53;1.38;;;2.80;97.60;;;;;;5022810;28;36307;-60
2022/01/08 03:13:57;;;;;;;3.47;0.80;;;2.80;97.60;;;;;;5022886;28;36476;-60
2022/01/08 03:16:24;;;;;;;5.22;0.82;;;2.80;97.50;;;;;;5022758;28;37418;-60
2022/01/08 03:18:52;;;;;;;5.30;0.85;;;2.80;97.60;;;;;;5022901;28;39134;-60
2022/01/08 03:21:22;;;;;;;8.70;1.10;;;2.80;97.50;;;;;;5022787;28;38244;-60
2022/01/08 03:23:55;;;;;;;4.90;1.27;;;2.80;97.50;;;;;;5022435;28;36686;-60
2022/01/08 03:26:24;;;;;;;8.93;0.88;;;2.80;97.50;;;;;;5022957;28;37482;-60
2022/01/08 03:28:52;;;;;;;3.85;0.93;;;2.80;97.50;;;;;;5022467;28;37215;-60
2022/01/08 03:31:22;;;;;;;5.15;0.85;;;2.80;97.50;;;;;;5022173;28;37450;-60
2022/01/08 03:33:50;;;;;;;5.65;1.42;;;2.80;97.50;;;;;;5021780;28;38912;-60
2022/01/08 03:36:19;;;;;;;2.78;0.60;;;2.80;97.50;;;;;;5023202;28;40448;-60
2022/01/08 03:38:47;;;;;;;7.97;0.85;;;2.80;97.40;;;;;;5023372;28;37275;-60
2022/01/08 03:41:14;;;;;;;5.13;1.00;;;2.20;97.20;;;;;;5021368;28;37813;-60
2022/01/08 03:43:42;;;;;;;3.50;0.70;;;2.80;97.30;;;;;;5021824;28;37106;-60
2022/01/08 03:46:11;;;;;;;5.45;1.02;;;2.80;97.30;;;;;;5022633;28;36452;-60
2022/01/08 03:48:46;;;;;;;2.72;0.43;;;2.80;97.20;;;;;;5021870;28;36669;-60
2022/01/08 03:51:15;;;;;;;3.00;0.80;;;2.80;97.20;;;;;;5022359;28;38172;-60
2022/01/08 03:53:44;;;;;;;13.02;1.60;;;2.80;97.20;;;;;;5022736;28;37541;-60
2022/01/08 03:56:11;;;;;;;3.28;0.77;;;2.80;97.10;;;;;;5021975;28;38288;-60
2022/01/08 03:58:38;;;;;;;7.00;0.95;;;2.80;97.10;;;;;;5022358;28;38651;-60
2022/01/08 04:01:06;;;;;;;5.78;0.70;;;2.70;97.10;;;;;;5022389;28;37256;-60
2022/01/08 04:03:33;;;;;;;4.57;0.73;;;2.70;97.40;;;;;;5021905;28;37200;-60
2022/01/08 04:06:02;;;;;;;5.43;0.95;;;2.70;97.20;;;;;;5021832;28;37335;-59
2022/01/08 04:08:29;;;;;;;4.75;0.85;;;2.80;97.20;;;;;;5022524;28;38630;-60
2022/01/08 04:10:56;;;;;;;3.38;0.85;;;2.80;97.20;;;;;;5022072;28;37437;-60
2022/01/08 04:13:24;;;;;;;7.18;0.60;;;2.70;97.10;;;;;;5022406;28;37613;-60
2022/01/08 04:15:56;;;;;;;4.13;0.70;;;2.80;97.10;;;;;;5021904;28;38378;-60
2022/01/08 04:18:23;;;;;;;4.80;1.20;;;2.80;97.10;;;;;;5021663;28;38991;-60
2022/01/08 04:21:08;;;;;;;2.42;0.50;;;2.70;97.20;;;;;;5022004;28;38035;-60
2022/01/08 04:23:36;;;;;;;6.22;0.98;;;2.70;97.30;;;;;;5021242;28;36474;-59
2022/01/08 04:26:04;;;;;;;6.13;1.10;;;2.70;97.30;;;;;;5022096;28;37630;-60
2022/01/08 04:28:31;;;;;;;4.47;0.85;;;2.80;97.40;;;;;;5021757;28;38592;-60
2022/01/08 04:30:59;;;;;;;3.50;0.80;;;2.80;97.50;;;;;;5021497;28;37939;-60
2022/01/08 04:33:26;;;;;;;6.72;0.90;;;2.80;97.70;;;;;;5021552;28;37640;-60
2022/01/08 04:35:55;;;;;;;2.92;1.30;;;2.80;97.40;;;;;;5021996;28;36266;-60
2022/01/08 04:38:22;;;;;;;4.22;0.93;;;2.90;97.40;;;;;;5020940;28;36600;-60
2022/01/08 04:40:51;;;;;;;3.85;0.90;;;2.90;97.40;;;;;;5020903;28;38882;-60
2022/01/08 04:43:20;;;;;;;4.72;1.30;;;2.90;97.40;;;;;;5021961;28;36608;-60
2022/01/08 04:45:49;;;;;;;5.68;1.10;;;2.90;97.40;;;;;;5021485;28;37745;-60
2022/01/08 04:48:17;;;;;;;5.22;0.88;;;2.90;97.50;;;;;;5021359;28;37786;-60
2022/01/08 04:50:44;;;;;;;5.90;1.15;;;3.00;97.50;;;;;;5021116;28;38112;-60
2022/01/08 04:53:12;;;;;;;3.30;0.85;;;3.00;97.50;;;;;;5021202;28;36160;-60
2022/01/08 04:55:39;;;;;;;4.63;1.02;;;3.00;97.50;;;;;;5021575;28;36435;-60
2022/01/08 04:58:08;;;;;;;5.30;1.10;;;3.00;97.50;;;;;;5021576;28;37510;-60
2022/01/08 05:00:36;;;;;;;5.43;1.10;;;3.00;97.40;;;;;;5020317;28;37226;-60
2022/01/08 05:03:04;;;;;;;6.47;1.13;;;3.00;97.40;;;;;;5020424;28;35353;-60
2022/01/08 05:05:32;;;;;;;8.88;1.67;;;3.10;97.40;;;;;;5020730;28;38705;-60
2022/01/08 05:07:59;;;;;;;5.20;1.10;;;3.00;97.40;;;;;;5020591;28;38949;-60
2022/01/08 05:10:27;;;;;;;7.18;1.48;;;3.10;97.40;;;;;;5021142;28;37212;-60
2022/01/08 05:12:54;;;;;;;6.57;1.08;;;3.10;97.40;;;;;;5021255;28;36372;-60
2022/01/08 05:15:23;;;;;;;9.55;1.55;;;3.10;97.40;;;;;;5020703;28;37944;-60
2022/01/08 05:17:54;;;;;;;4.93;1.10;;;3.10;97.40;;;;;;5020182;28;37822;-60
2022/01/08 05:20:22;;;;;;;4.97;1.13;;;3.10;97.30;;;;;;5020457;28;38663;-60
2022/01/08 05:22:52;;;;;;;4.47;1.10;;;3.10;97.30;;;;;;5020203;28;35163;-60
2022/01/08 05:25:21;;;;;;;6.90;1.05;;;3.10;97.40;;;;;;5020078;28;37622;-60
2022/01/08 05:27:49;;;;;;;4.50;0.85;;;3.10;97.40;;;;;;5020491;28;37374;-60
2022/01/08 05:30:18;;;;;;;4.75;0.90;;;3.10;97.40;;;;;;5020296;28;37547;-60
2022/01/08 05:32:47;;;;;;;5.30;1.15;;;3.20;97.40;;;;;;5020597;28;36513;-60
2022/01/08 05:35:15;;;;;;;3.47;0.93;;;3.20;97.40;;;;;;5020204;28;36293;-60
2022/01/08 05:37:42;;;;;;;6.75;1.13;;;3.10;97.40;;;;;;5020360;28;39531;-60
2022/01/08 05:40:10;;;;;;;6.03;2.33;;;3.10;97.30;;;;;;5020501;28;37863;-60
2022/01/08 05:42:38;;;;;;;6.20;1.10;;;3.10;97.30;;;;;;5020153;28;36558;-60
2022/01/08 05:45:06;;;;;;;5.80;1.20;;;3.10;97.30;;;;;;5020125;28;37556;-60
2022/01/08 05:47:35;;;;;;;4.35;1.10;;;3.00;97.20;;;;;;5021000;28;37586;-60
2022/01/08 05:50:04;;;;;;;5.70;1.00;;;2.90;97.30;;;;;;5019492;28;38051;-60
2022/01/08 05:52:31;;;;;;;5.25;1.13;;;2.90;97.30;;;;;;5020385;28;36910;-59
2022/01/08 05:54:59;;;;;;;2.17;0.75;;;2.80;97.40;;;;;;5020344;28;38466;-60
2022/01/08 05:57:27;;;;;;;4.35;0.95;;;2.80;97.40;;;;;;5019367;28;38125;-60
2022/01/08 05:59:54;;;;;;;4.00;0.80;;;2.70;97.50;;;;;;5020416;28;38423;-60
2022/01/08 06:02:21;;;;;;;3.63;0.90;;;2.70;97.50;;;;;;5020573;28;35225;-60
2022/01/08 06:04:48;;;;;;;3.65;1.00;;;2.70;97.60;;;;;;5019338;28;37434;-60
2022/01/08 06:07:17;;;;;;;2.63;0.95;;;2.70;97.60;;;;;;5020191;28;36524;-60
2022/01/08 06:09:44;;;;;;;7.53;1.38;;;2.70;97.60;;;;;;5019859;28;37243;-60
2022/01/08 06:12:12;;;;;;;5.40;1.10;;;2.70;97.60;;;;;;5020004;28;37430;-60
2022/01/08 06:14:39;;;;;;;6.22;1.27;;;2.60;97.60;;;;;;5020467;28;37617;-60
2022/01/08 06:17:06;;;;;;;3.55;1.45;;;2.60;97.70;;;;;;5019892;28;37643;-60
2022/01/08 06:19:34;;;;;;;6.47;1.33;;;2.60;97.80;;;;;;5019191;28;39543;-60
2022/01/08 06:22:01;;;;;;;6.88;1.52;;;2.50;97.80;;;;;;5019658;28;37740;-60
2022/01/08 06:24:30;;;;;;;8.50;1.65;;;2.50;97.80;;;;;;5020302;28;36605;-60
2022/01/08 06:26:57;;;;;;;5.95;1.83;;;2.50;97.80;;;;;;5020228;28;36597;-60
2022/01/08 06:29:25;;;;;;;7.72;1.60;;;2.40;97.90;;;;;;5019780;28;38822;-60
2022/01/08 06:31:53;;;;;;;4.63;1.73;;;2.40;97.90;;;;;;5020407;28;36414;-60
2022/01/08 06:34:20;;;;;;;6.38;1.70;;;2.40;98.10;;;;;;5019088;28;37559;-60
2022/01/08 06:36:48;;;;;;;6.65;2.20;;;2.40;98.20;;;;;;5019659;28;38563;-60
2022/01/08 06:39:15;;;;;;;7.13;2.15;;;2.40;98.40;;;;;;5019540;28;37298;-60
2022/01/08 06:41:44;;;;;;;6.25;1.95;;;2.40;98.20;;;;;;5023272;28;35361;-59
2022/01/08 06:44:12;;;;;;;7.03;1.95;;;2.40;98.20;;;;;;5023287;28;37389;-60
2022/01/08 06:46:40;;;;;;;7.60;2.08;;;2.30;98.20;;;;;;5023226;28;36392;-60
2022/01/08 06:49:08;;;;;;;10.98;2.28;;;2.30;98.20;;;;;;5022861;28;37166;-60
2022/01/08 06:51:35;;;;;;;11.05;3.35;;;2.30;98.20;;;;;;5022543;28;36510;-60
2022/01/08 06:54:03;;;;;;;11.05;2.72;;;2.20;98.20;;;;;;5022577;28;37574;-60
2022/01/08 06:56:30;;;;;;;10.43;2.42;;;2.20;98.30;;;;;;5022664;28;36497;-59
2022/01/08 06:58:59;;;;;;;8.15;2.70;;;2.10;98.30;;;;;;5022748;28;38217;-60
2022/01/08 07:01:26;;;;;;;11.40;3.58;;;2.10;98.40;;;;;;5023060;28;36590;-60
2022/01/08 07:03:55;;;;;;;8.70;2.80;;;2.10;98.40;;;;;;5022353;28;37497;-60
2022/01/08 07:06:22;;;;;;;11.07;3.22;;;2.10;98.60;;;;;;5022344;28;37950;-60
2022/01/08 07:08:49;;;;;;;14.32;3.35;;;2.10;98.60;;;;;;5022687;28;36934;-60
2022/01/08 07:11:17;;;;;;;11.95;3.17;;;2.00;98.60;;;;;;5022628;28;38110;-60
2022/01/08 07:13:44;;;;;;;19.27;5.20;;;2.10;98.60;;;;;;5022996;28;38633;-60
2022/01/08 07:16:13;;;;;;;9.65;3.40;;;2.10;98.60;;;;;;5022662;28;38079;-60
2022/01/08 07:18:40;;;;;;;9.45;3.45;;;2.10;98.60;;;;;;5022778;28;37252;-60
2022/01/08 07:21:08;;;;;;;12.77;4.07;;;2.10;98.60;;;;;;5023029;28;36999;-60
2022/01/08 07:23:35;;;;;;;11.40;3.63;;;2.10;98.70;;;;;;5021786;28;37364;-60
2022/01/08 07:26:02;;;;;;;9.52;3.58;;;2.10;98.80;;;;;;5022630;28;37609;-60
2022/01/08 07:28:30;;;;;;;11.43;3.67;;;2.10;98.80;;;;;;5022367;28;37925;-60
2022/01/08 07:30:57;;;;;;;8.13;3.20;;;2.20;98.80;;;;;;5021714;28;36937;-60
2022/01/08 07:33:26;;;;;;;12.68;3.60;;;2.20;98.80;;;;;;5021936;28;37437;-60
2022/01/08 07:35:53;;;;;;;6.13;3.22;;;2.20;98.70;;;;;;5021683;28;37720;-60
2022/01/08 07:38:21;;;;;;;13.40;3.53;;;2.20;98.70;;;;;;5021658;28;37316;-60
2022/01/08 07:40:51;;;;;;;11.63;3.08;;;2.20;98.70;;;;;;5021731;28;37229;-60
2022/01/08 07:43:18;;;;;;;14.40;3.88;;;2.20;98.70;;;;;;5022070;28;37549;-60
2022/01/08 07:45:46;;;;;;;10.10;3.42;;;2.20;98.70;;;;;;5021368;28;37711;-60
2022/01/08 07:48:13;;;;;;;11.90;3.47;;;2.20;98.60;;;;;;5020937;28;37504;-60
2022/01/08 07:50:42;;;;;;;9.57;3.10;;;2.30;98.60;;;;;;5021414;28;36512;-60
2022/01/08 07:53:09;;;;;;;9.70;2.80;;;2.20;98.60;;;;;;5021718;28;37588;-60
2022/01/08 07:55:36;;;;;;;12.07;3.08;;;2.20;98.50;;;;;;5021940;28;37644;-60
2022/01/08 07:58:04;;;;;;;7.95;2.95;;;2.20;98.50;;;;;;5021762;28;37379;-60
2022/01/08 08:00:31;;;;;;;11.13;3.15;;;2.30;98.50;;;;;;5021701;28;36929;-59
2022/01/08 08:02:58;;;;;;;12.75;3.25;;;2.30;98.50;;;;;;5021824;28;37757;-60
2022/01/08 08:05:26;;;;;;;11.57;4.40;;;2.30;98.40;;;;;;5022228;28;37932;-60
2022/01/08 08:07:55;;;;;;;9.15;3.00;;;2.30;98.40;;;;;;5021660;28;38299;-60
2022/01/08 08:10:25;;;;;;;8.77;2.83;;;2.40;98.30;;;;;;5021818;28;36824;-59
2022/01/08 08:12:55;;;;;;;9.93;3.20;;;2.40;98.20;;;;;;5021607;28;37356;-60
2022/01/08 08:15:23;;;;;;;10.60;2.83;;;2.40;98.20;;;;;;5021179;28;38023;-60
2022/01/08 08:17:50;;;;;;;8.70;2.95;;;2.50;98.10;;;;;;5020937;28;37452;-60
2022/01/08 08:20:18;;;;;;;7.50;3.13;;;2.50;98.10;;;;;;5021659;28;36150;-60
2022/01/08 08:22:45;;;;;;;10.98;2.58;;;2.70;98.10;;;;;;5021168;28;38437;-60
2022/01/08 08:25:14;;;;;;;8.93;2.42;;;2.80;98.00;;;;;;5021738;28;38445;-60
2022/01/08 08:27:42;;;;;;;15.52;3.47;;;2.80;97.90;;;;;;5021245;28;37162;-60
2022/01/08 08:30:11;;;;;;;11.70;2.50;;;3.00;97.80;;;;;;5021551;28;36480;-60
2022/01/08 08:32:38;;;;;;;12.25;3.38;;;3.10;97.60;;;;;;5021946;28;37462;-60
2022/01/08 08:35:06;;;;;;;7.05;2.35;;;3.20;97.50;;;;;;5021217;28;36599;-60
2022/01/08 08:37:35;;;;;;;8.90;2.67;;;3.30;97.40;;;;;;5020684;28;37087;-60
2022/01/08 08:40:03;;;;;;;7.30;2.75;;;3.30;97.30;;;;;;5021976;28;35344;-60
2022/01/08 08:42:32;;;;;;;9.43;2.42;;;3.30;97.10;;;;;;5021311;28;37436;-60
2022/01/08 08:45:00;;;;;;;7.85;2.47;;;3.40;97.10;;;;;;5021368;28;37916;-59
2022/01/08 08:47:27;;;;;;;9.65;2.75;;;3.40;97.00;;;;;;5022001;28;37543;-59
2022/01/08 08:49:54;;;;;;;5.47;2.40;;;3.50;96.80;;;;;;5020811;28;36554;-60
2022/01/08 08:52:23;;;;;;;9.60;3.00;;;3.60;96.60;;;;;;5021437;28;36314;-60
2022/01/08 08:54:51;;;;;;;8.07;2.42;;;3.50;96.50;;;;;;5020881;28;37788;-59
2022/01/08 08:57:18;;;;;;;9.07;2.55;;;3.50;96.50;;;;;;5021318;28;39331;-60
2022/01/08 08:59:47;;;;;;;12.75;2.60;;;3.50;96.50;;;;;;5020897;28;36397;-59
2022/01/08 09:02:14;;;;;;;7.13;2.25;;;3.50;96.70;;;;;;5020262;28;37644;-59
2022/01/08 09:04:42;;;;;;;6.70;2.53;;;3.60;96.80;;;;;;5019701;28;38311;-59
2022/01/08 09:07:09;;;;;;;12.23;2.35;;;3.60;96.70;;;;;;5021094;28;38019;-59
2022/01/08 09:09:37;;;;;;;9.38;2.70;;;3.70;96.70;;;;;;5020839;28;36644;-59
2022/01/08 09:12:05;;;;;;;6.15;2.22;;;3.70;96.60;;;;;;5021011;28;37710;-59
2022/01/08 09:14:32;;;;;;;6.80;1.90;;;3.80;96.60;;;;;;5021119;28;37944;-60
2022/01/08 09:17:04;;;;;;;9.85;2.42;;;3.80;96.60;;;;;;5021261;28;38077;-60
2022/01/08 09:19:32;;;;;;;10.88;3.28;;;3.90;96.60;;;;;;5020682;28;37783;-59
2022/01/08 09:22:01;;;;;;;10.00;2.38;;;4.10;96.30;;;;;;5020742;28;39744;-59
2022/01/08 09:24:30;;;;;;;10.48;2.95;;;4.20;96.10;;;;;;5020065;28;36767;-59
2022/01/08 09:26:57;;;;;;;9.82;2.75;;;4.30;95.90;;;;;;5019752;28;38331;-59
2022/01/08 09:29:24;;;;;;;10.40;2.80;;;4.30;95.90;;;;;;5020270;28;36928;-59
2022/01/08 09:31:52;;;;;;;9.10;2.25;;;4.40;95.90;;;;;;5020505;28;36449;-59
2022/01/08 09:34:21;;;;;;;11.63;2.90;;;4.50;95.70;;;;;;5020183;28;37767;-60
2022/01/08 09:36:48;;;;;;;11.90;3.10;;;4.50;95.60;;;;;;5021008;28;37388;-60
2022/01/08 09:39:16;;;;;;;16.23;2.67;;;4.40;95.40;;;;;;5019912;28;37775;-60
2022/01/08 09:41:44;;;;;;;8.80;2.60;;;4.30;95.40;;;;;;5020335;28;37647;-60
2022/01/08 09:44:13;;;;;;;8.77;2.63;;;4.20;95.40;;;;;;5020486;28;37995;-59
2022/01/08 09:46:41;;;;;;;13.68;2.50;;;4.20;95.60;;;;;;5020009;28;37363;-60
2022/01/08 09:49:09;;;;;;;9.23;2.75;;;4.10;95.70;;;;;;5020268;28;37178;-59
2022/01/08 09:51:38;;;;;;;10.90;2.60;;;4.10;95.90;;;;;;5020983;28;37126;-60
2022/01/08 09:54:06;;;;;;;9.30;2.53;;;4.20;96.10;;;;;;5018595;28;37791;-60
2022/01/08 09:56:33;;;;;;;9.50;2.45;;;4.50;96.10;;;;;;5020100;28;37379;-60
2022/01/08 09:59:02;;;;;;;7.40;2.70;;;4.80;95.60;;;;;;5020436;28;37569;-60
2022/01/08 10:01:31;;;;;;;15.20;3.10;;;4.90;94.80;;;;;;5019783;28;37571;-60
2022/01/08 10:04:00;;;;;;;8.18;2.30;;;5.10;94.40;;;;;;5020559;28;37187;-60
2022/01/08 10:06:29;;;;;;;9.52;2.40;;;5.10;94.10;;;;;;5020478;28;38303;-60
2022/01/08 10:08:57;;;;;;;7.68;2.58;;;5.10;94.10;;;;;;5019319;28;36684;-59
2022/01/08 10:11:26;;;;;;;8.50;2.30;;;5.00;93.90;;;;;;5019732;28;37478;-59
2022/01/08 10:14:02;;;;;;;10.75;2.55;;;5.00;94.10;;;;;;5019413;28;38443;-60
2022/01/08 10:19:21;;;;;;;14.70;3.22;;;4.80;94.20;;;;;;4988667;28;37691;-60
2022/01/08 10:21:49;;;;;;;10.32;2.50;;;4.70;94.10;;;;;;5020554;28;36461;-59
2022/01/08 10:24:22;;;;;;;10.80;2.50;;;4.60;94.30;;;;;;5020013;28;37771;-60
2022/01/08 10:26:51;;;;;;;16.55;3.08;;;4.60;94.30;;;;;;5020308;28;38450;-60
2022/01/08 10:29:21;;;;;;;12.45;2.60;;;4.60;94.60;;;;;;5019765;28;36270;-60
2022/01/08 10:31:50;;;;;;;8.80;2.35;;;4.60;94.60;;;;;;5019514;28;36259;-60
2022/01/08 10:34:19;;;;;;;9.32;3.15;;;4.60;94.70;;;;;;5019299;28;37533;-60
2022/01/08 10:36:49;;;;;;;12.43;2.70;;;4.60;94.60;;;;;;5019863;28;37738;-59
2022/01/08 10:39:22;;;;;;;11.90;2.63;;;4.60;94.70;;;;;;5020079;28;36512;-59
2022/01/08 10:41:52;;;;;;;7.65;2.08;;;4.60;94.60;;;;;;5019811;28;37626;-61
2022/01/08 10:44:21;;;;;;;10.98;2.80;;;4.60;94.70;;;;;;5018855;28;37888;-60
2022/01/08 10:46:56;;;;;;;6.72;2.30;;;4.50;94.70;;;;;;5019203;28;36245;-60
2022/01/08 10:49:31;;;;;;;12.30;2.72;;;4.60;94.70;;;;;;5019145;28;36811;-60
2022/01/08 10:52:00;;;;;;;12.23;2.90;;;4.60;94.70;;;;;;5019264;28;37995;-60
2022/01/08 10:54:30;;;;;;;9.77;3.53;;;4.60;94.70;;;;;;5018926;28;37593;-61
2022/01/08 10:57:00;;;;;;;10.02;3.10;;;4.60;94.60;;;;;;5019638;28;36234;-60
2022/01/08 10:59:29;;;;;;;13.73;3.50;;;4.60;94.60;;;;;;5019481;28;37345;-60
2022/01/08 11:01:58;;;;;;;10.13;3.25;;;4.50;94.70;;;;;;5019349;28;37340;-60
2022/01/08 11:04:38;;;;;;;12.52;3.10;;;4.40;94.40;;;;;;5019193;28;38721;-60
2022/01/08 11:07:08;;;;;;;14.57;3.88;;;4.40;94.50;;;;;;5018770;28;38368;-60
2022/01/08 11:09:38;;;;;;;13.25;3.22;;;4.30;94.50;;;;;;5019801;28;36257;-61
2022/01/08 11:12:08;;;;;;;12.43;3.42;;;4.50;94.70;;;;;;5019885;28;37575;-60
2022/01/08 11:17:38;;;;;;;14.65;3.88;;;4.40;94.80;;;;;;4968493;28;37672;-60
2022/01/08 11:20:09;;;;;;;11.65;4.10;;;4.40;94.80;;;;;;4968410;28;35276;-61
2022/01/08 11:22:38;;;;;;;12.88;3.08;;;4.40;95.00;;;;;;4990940;28;37714;-60
2022/01/08 11:25:09;;;;;;;10.45;3.53;;;4.50;95.10;;;;;;5019384;28;36678;-60
2022/01/08 11:27:45;;;;;;;12.65;3.80;;;4.50;95.10;;;;;;5022981;28;38150;-60
2022/01/08 11:30:16;;;;;;;11.57;4.00;;;4.50;94.80;;;;;;5022881;28;37410;-60
2022/01/08 11:32:45;;;;;;;11.93;3.90;;;4.60;95.10;;;;;;5022992;28;36429;-60
2022/01/08 11:35:14;;;;;;;12.63;3.90;;;4.60;94.90;;;;;;5022177;28;37577;-60
2022/01/08 11:37:46;;;;;;;13.18;4.18;;;4.60;95.00;;;;;;5022841;28;37450;-60
2022/01/08 11:40:18;;;;;;;10.55;3.90;;;4.60;94.90;;;;;;5022222;28;37183;-60
2022/01/08 11:42:46;;;;;;;14.32;3.72;;;4.60;94.90;;;;;;5022182;28;38472;-60
2022/01/08 11:45:16;;;;;;;12.35;3.70;;;4.70;94.90;;;;;;5023179;28;37683;-60
2022/01/08 11:47:47;;;;;;;11.57;3.40;;;4.70;94.90;;;;;;5022941;28;36302;-60
2022/01/08 11:50:18;;;;;;;12.07;3.70;;;4.70;94.80;;;;;;5022124;28;38107;-60
2022/01/08 11:52:46;;;;;;;10.48;4.03;;;4.70;94.80;;;;;;5022079;28;38480;-60
2022/01/08 11:55:33;;;;;;;15.10;4.20;;;4.80;94.70;;;;;;5022332;28;37815;-59
2022/01/08 11:58:15;;;;;;;11.65;3.67;;;4.80;94.40;;;;;;5022365;28;37639;-60
2022/01/08 12:00:52;;;;;;;8.60;3.50;;;4.80;94.50;;;;;;5022502;28;35408;-60
2022/01/08 12:03:21;;;;;;;10.38;3.38;;;4.80;94.70;;;;;;5021545;28;36243;-60
2022/01/08 12:05:49;;;;;;;13.27;4.30;;;4.80;94.80;;;;;;5021903;28;37645;-60
2022/01/08 12:08:18;;;;;;;12.20;4.13;;;4.90;94.60;;;;;;5022399;28;36702;-60
2022/01/08 12:10:59;;;;;;;12.23;3.35;;;4.90;94.50;;;;;;5021730;28;36486;-60
2022/01/08 12:13:45;;;;;;;13.70;4.13;;;4.90;94.50;;;;;;5022714;28;37436;-60
2022/01/08 12:16:32;;;;;;;15.93;4.55;;;4.90;94.40;;;;;;5021802;28;38715;-60
2022/01/08 12:19:00;;;;;;;12.45;4.97;;;4.90;94.50;;;;;;5020258;28;36189;-60
2022/01/08 12:21:35;;;;;;;11.32;4.30;;;4.90;94.50;;;;;;5022275;28;37348;-60
2022/01/08 12:24:34;;;;;;;15.70;4.47;;;4.90;94.60;;;;;;5022045;28;38036;-60
2022/01/08 12:27:20;;;;;;;13.02;4.45;;;4.80;94.60;;;;;;5022136;28;38029;-59
2022/01/08 12:29:48;;;;;;;11.00;4.82;;;4.80;94.80;;;;;;5021766;28;38102;-60
2022/01/08 12:32:29;;;;;;;12.60;5.90;;;4.80;94.90;;;;;;5021637;28;37206;-60
2022/01/08 12:35:24;;;;;;;17.52;4.82;;;4.80;95.00;;;;;;5022396;28;20127;-60
2022/01/08 12:37:53;;;;;;;12.75;5.95;;;4.80;95.10;;;;;;5020595;28;38304;-60
2022/01/08 12:40:35;;;;;;;14.07;5.95;;;4.80;94.90;;;;;;5020571;28;37243;-60
2022/01/08 12:43:20;;;;;;;17.92;6.30;;;4.80;95.00;;;;;;5021861;28;37091;-61
2022/01/08 12:45:50;;;;;;;13.88;6.57;;;4.80;95.00;;;;;;5021816;28;40331;-60
2022/01/08 12:48:19;;;;;;;14.43;5.97;;;4.70;95.10;;;;;;5021261;28;38211;-60
2022/01/08 12:50:56;;;;;;;13.77;6.72;;;4.80;95.20;;;;;;5020432;28;37885;-59
2022/01/08 12:53:30;;;;;;;11.93;6.88;;;4.70;95.10;;;;;;5020894;28;36746;-60
2022/01/08 12:56:21;;;;;;;16.90;6.93;;;4.70;95.30;;;;;;5020668;28;36490;-60
2022/01/08 12:58:51;;;;;;;12.95;7.13;;;4.70;95.30;;;;;;4998728;28;38872;-60
2022/01/08 13:01:21;;;;;;;15.60;7.45;;;4.70;95.30;;;;;;5020432;28;37767;-60
2022/01/08 13:03:52;;;;;;;15.23;8.00;;;4.80;95.10;;;;;;5020960;28;36646;-61
2022/01/08 13:06:31;;;;;;;13.18;8.02;;;4.80;95.10;;;;;;5021269;28;38883;-60
2022/01/08 13:09:00;;;;;;;17.80;7.53;;;4.40;95.00;;;;;;5020386;28;37707;-60
2022/01/08 13:11:29;;;;;;;14.30;7.90;;;4.80;94.90;;;;;;5020843;28;37199;-60
2022/01/08 13:14:00;;;;;;;15.25;8.32;;;4.80;94.90;;;;;;5021296;28;36391;-60
2022/01/08 13:16:31;;;;;;;15.93;8.40;;;4.80;94.90;;;;;;5020693;28;36261;-60
2022/01/08 13:19:00;;;;;;;19.10;9.32;;;4.80;94.80;;;;;;5021171;28;37505;-60
2022/01/08 13:21:30;;;;;;;19.52;9.80;;;4.70;94.90;;;;;;5021259;28;36207;-60